Station info - map view · info · telemetry · weather · raw · status · beacons · messages · bulletins · browse · moving · my account
Callsign, ship name or locator: Clear       
It is possible to search using wildcards (*?) after a prefix. Example: OH*
APRS station KC9BUH-9 - show graphs
Map loading...
Comment: 145.370MHz D023 -060 Patoka Lake RPTR kc9buh@gmail.com
Mic-E message: Off duty
Location: 39°02.33' N 87°09.70' W - locator EM69KA09OH - show map - static map
0.4 miles Northeast bearing 39° from Linton, Greene County, Indiana, United States [?]
8.8 miles South bearing 167° from Jasonville, Greene County, Indiana, United States
73.5 miles Southwest bearing 227° from Indianapolis, Marion County, Indiana, United States
76.5 miles North bearing 16° from Evansville, Vanderburgh County, Indiana, United States
Last position: 2019-11-17 17:11:28 EST (3d 12h49m ago)
2019-11-17 17:11:28 EST local time at Linton, United States [?]
Altitude: 522 ft
Course:
Speed: 0 MPH
Device: Yaesu: FTM-400DR (rig)
Last path: KC9BUH-9>SYPR3S via N9UMJ-10*,WIDE1*,KD9IWV-6*,WIDE2*,qAR,KD9IWV (good)
Positions stored: 13681
Packet rate: 210 seconds between packets on average during 6732 seconds.
Other SSIDs: KC9BUH KC9BUH-10 KC9BUH-4 KC9BUH-7 KC9BUH-DP KC9BUH-N KC9BUH-R KC9BUH-Y
Stations near current position of KC9BUH-9 - show more
callsign distance last heard - EST      callsign distance last heard - EST
KC9BUH-731.1 yards 270°2019-11-17 11:26:22 GCGH-111.7 miles 85°2019-11-21 05:59:44
116552.0 miles 270°2019-10-31 07:05:35 K9PIT-96.3 miles 93°2019-11-20 17:17:55
K9SIR9.8 miles 192°2019-11-21 06:00:28 GCEMA12.0 miles 94°2019-11-21 05:48:24
NQ9J-1012.3 miles 16°2019-11-21 01:54:09 KC9EOC-N14.4 miles 213°2019-11-21 05:47:40
DW261419.4 miles 259°2019-11-21 00:02:13 KC9CW-N20.0 miles 204°2019-11-21 05:48:11
KC9CW-1320.0 miles 204°2019-11-21 06:00:46 KC9CW20.0 miles 204°2019-11-14 19:43:26
IRLP-864120.0 miles 204°2019-11-21 05:43:24 DW025122.9 miles 64°2019-11-21 05:46:17
DW104924.0 miles 126°2019-11-21 05:49:27 WB9TLH28.3 miles 82°2019-11-17 17:30:05
WB9TLH-728.7 miles 86°2019-11-08 11:33:06 WB9TLH-1128.7 miles 86°2019-11-21 05:58:37
WB9TLH-R28.7 miles 86°2019-11-21 05:48:07 KD9IYJ-928.7 miles 85°2019-11-16 06:29:04
Stations which heard KC9BUH-9 directly on radio –
callsign pkts first heard - EST last heard longest (tx => rx) longest at - EST
WB9TLH-11 10 2019-11-04 06:54:47 2019-11-16 05:28:15 EM68SR > EM69QB 24.6 miles 342° 2019-11-16 04:49:02
N9UMJ-10 457 2019-10-31 22:54:00 2019-11-17 17:11:28 EM68IE > EM68QR 51.4 miles 42° 2019-10-31 22:54:00
KY4K-10 23 2019-10-31 22:41:42 2019-11-12 16:23:08 EM68PJ > EM67FU 58.5 miles 231° 2019-11-09 09:27:50
N9AMN-2 5 2019-11-16 05:37:25 2019-11-16 05:55:36 EM69SJ > EM69WR 28.1 miles 37° 2019-11-16 05:37:25
W9GO-3 1 2019-11-16 12:44:24 2019-11-16 12:44:24 EN60WO > EN60WL 7.4 miles 192° 2019-11-16 12:44:24
W9ICE-10 6 2019-11-16 05:42:51 2019-11-16 13:55:18 EN70FH > EM69VV 45.4 miles 229° 2019-11-16 07:10:31
N9LQP-2 1 2019-11-16 04:49:04 2019-11-16 04:49:04 EM68SR > EM79FF 59.7 miles 54° 2019-11-16 04:49:04
WB9TLH-12 1 2019-11-16 05:20:34 2019-11-16 05:20:34 EM69RD > EM69RE 4.0 miles 73° 2019-11-16 05:20:34
KC9MWQ-1 8 2019-11-16 07:10:25 2019-11-16 12:29:01 EN70FH > EN70EO 19.5 miles 345° 2019-11-16 07:10:25
KA4MAP-3 2 2019-11-01 11:39:20 2019-11-01 23:56:44 EM68QJ > EM67UX 32.4 miles 146° 2019-11-01 23:56:44
N9CVA-10 48 2019-11-01 10:44:17 2019-11-16 04:44:18 EM68KP > EM78BI 73.5 miles 106° 2019-11-06 08:20:41
W8VFR-11 1 2019-11-16 06:58:18 2019-11-16 06:58:18 EN70FC > EM79NO 50.1 miles 135° 2019-11-16 06:58:18
W9YB-1 1 2019-11-16 13:23:11 2019-11-16 13:23:11 EN60RI > EN60NK 20.9 miles 282° 2019-11-16 13:23:11
WE9MA-3 2 2019-11-16 06:58:24 2019-11-16 07:02:22 EN70FE > EM79HW 19.9 miles 149° 2019-11-16 07:02:22
W9INX-1 6 2019-11-16 07:57:10 2019-11-16 10:58:23 EN70IX > EN71KE 16.4 miles 36° 2019-11-16 10:58:23
KE9YM-3 1 2019-11-16 05:16:22 2019-11-16 05:16:22 EM69RC > EM69UE 13.3 miles 71° 2019-11-16 05:16:22
WB9EOC-10 15 2019-11-04 06:34:02 2019-11-17 16:29:36 EM69JA > EM69NP 43.9 miles 22° 2019-11-04 06:34:02
W9SMJ-1 7 2019-11-16 12:18:10 2019-11-16 13:21:44 EN60RJ > EN60XJ 24.0 miles 85° 2019-11-16 13:21:44
GCGH-11 129 2019-11-02 22:59:24 2019-11-17 17:05:21 EM68MQ > EM69KA 27.3 miles 335° 2019-11-09 08:55:01
KC4FIE 1 2019-11-12 16:27:59 2019-11-12 16:27:59 EM67KP > EM67GH 30.1 miles 223° 2019-11-12 16:27:59
W9KHP-10 7 2019-11-07 13:35:59 2019-11-12 15:30:48 EM67LU > EM67IW 16.5 miles 288° 2019-11-12 15:26:10
K9AWM-10 6 2019-11-04 15:34:50 2019-11-04 15:58:59 EM68KP > EM68JP 2.0 miles 296° 2019-11-04 15:34:50
KC9EOC-10 57 2019-10-31 22:36:51 2019-11-17 15:46:45 EM68SR > EM68FP 54.7 miles 264° 2019-11-16 04:50:06
KC9BUH-10 297 2019-10-31 22:39:13 2019-11-16 04:34:53 EM68IB > EM68QI 41.2 miles 59° 2019-10-31 22:39:13
N9WNH-8 6 2019-11-16 07:44:34 2019-11-16 09:49:29 EN70HV > EN71HG 26.8 miles 355° 2019-11-16 07:44:34
KB9PMA-1 16 2019-11-16 07:16:07 2019-11-16 11:48:10 EN70CN > EN70FN 10.7 miles 96° 2019-11-16 11:48:10
W9IZ-15 5 2019-11-16 05:26:06 2019-11-16 05:41:10 EM69TK > EM69RF 15.5 miles 215° 2019-11-16 05:41:10
KF4LXS 10 2019-10-31 20:11:22 2019-11-07 13:38:50 EM68GA > EM67GW 4.6 miles 195° 2019-11-07 13:38:50
WA9C-11 2 2019-10-31 22:26:20 2019-10-31 22:31:18 EM68HA > EM67EX 12.9 miles 256° 2019-10-31 22:31:18

Only position packets which were originated by the station are shown here. The range statistics show some extra long hops, because some digipeaters do not correctly add themselves to the digipeater path. Please check the raw packets.
About this site
This page shows real-time information collected from the Automatic Position Reporting System Internet network (APRS-IS). APRS is used by amateur (ham) radio operators to transmit real-time position information, weather data, telemetry and messages over the radio. A vehicle equipped with a GPS receiver, a VHF transmitter or HF transceiver and a small computer device called a tracker transmits it's location, speed and course in a small data packet, which is then received by a nearby iGate receiving site which forwards the packet on the Internet. Systems connected to the Internet can send information on the APRS-IS without a radio transmitter, or collect and display information transmitted anywhere in the world.
User guide · FAQ · Blog · Discussion group · Linking to aprs.fi · AIS sites · Service status · Database statistics · Advertising on aprs.fi · Technical details · API · Change log · Planned changes · Credits and thanks · Terms Of Service · iPhone/iPad APRS